Time;durP1;ratioP1;P1;durP2;ratioP2;P2;SDS_P1;SDS_P2;PMS_P1;PMS_P2;Temp;Humidity;BMP_temperature;BMP_pressure;BME280_temperature;BME280_humidity;BME280_pressure;Samples;Min_cycle;Max_cycle;Signal;HPM_P1;HPM_P2
2022/03/04 00:01:03;;;;;;;35.30;12.77;;;-1.20;99.90;;;;;;4969628;28;20022;-76
2022/03/04 00:03:29;;;;;;;29.92;12.48;;;-1.30;99.90;;;;;;4967725;28;20031;-76
2022/03/04 00:05:55;;;;;;;34.58;11.65;;;-1.40;99.90;;;;;;4969205;28;20046;-76
2022/03/04 00:08:21;;;;;;;38.45;13.25;;;-1.40;99.90;;;;;;4969120;28;20475;-75
2022/03/04 00:10:47;;;;;;;31.50;12.60;;;-1.30;99.90;;;;;;4967899;28;20045;-75
2022/03/04 00:13:13;;;;;;;35.88;12.60;;;-1.30;99.90;;;;;;4968486;28;20038;-76
2022/03/04 00:15:38;;;;;;;32.28;11.85;;;-1.30;99.90;;;;;;4967769;28;20038;-76
2022/03/04 00:18:04;;;;;;;34.00;12.57;;;-1.50;99.90;;;;;;4966878;28;20034;-73
2022/03/04 00:20:30;;;;;;;38.25;14.18;;;-1.30;99.90;;;;;;4968504;28;20162;-76
2022/03/04 00:22:56;;;;;;;37.28;13.50;;;-1.30;99.90;;;;;;4969288;28;20104;-76
2022/03/04 00:25:22;;;;;;;37.88;12.98;;;-1.40;99.90;;;;;;4969116;28;20570;-76
2022/03/04 00:27:48;;;;;;;46.15;16.10;;;-0.30;99.90;;;;;;4968488;28;20027;-76
2022/03/04 00:30:14;;;;;;;34.30;12.85;;;-0.70;99.90;;;;;;4969458;28;20368;-76
2022/03/04 00:32:40;;;;;;;34.08;12.13;;;-0.90;99.90;;;;;;4967391;28;20034;-76
2022/03/04 00:35:06;;;;;;;32.50;12.20;;;-0.80;99.90;;;;;;4968625;28;20027;-76
2022/03/04 00:37:32;;;;;;;34.60;11.60;;;-1.40;99.90;;;;;;4967928;28;20031;-76
2022/03/04 00:39:58;;;;;;;34.45;13.48;;;-1.10;99.90;;;;;;4969240;28;20035;-76
2022/03/04 00:42:24;;;;;;;35.72;12.88;;;-0.60;99.90;;;;;;4968921;28;20101;-76
2022/03/04 00:44:50;;;;;;;31.08;13.77;;;-1.10;99.90;;;;;;4969241;28;20034;-76
2022/03/04 00:47:15;;;;;;;33.42;11.95;;;-1.90;99.90;;;;;;4956345;28;20051;-76
2022/03/04 00:49:41;;;;;;;34.00;13.15;;;-1.80;99.90;;;;;;4949466;28;20047;-76
2022/03/04 00:52:07;;;;;;;30.05;12.45;;;-1.10;99.90;;;;;;4949531;28;20098;-77
2022/03/04 00:54:33;;;;;;;33.95;13.18;;;-2.00;99.90;;;;;;4949517;28;20661;-76
2022/03/04 00:56:59;;;;;;;35.90;12.02;;;-0.70;99.90;;;;;;4947870;28;20023;-76
2022/03/04 00:59:27;;;;;;;37.58;13.93;;;-0.90;99.90;;;;;;4949745;28;20415;-76
2022/03/04 01:01:53;;;;;;;29.90;12.48;;;-0.70;99.90;;;;;;4949101;28;20041;-76
2022/03/04 01:04:18;;;;;;;33.38;14.75;;;-2.00;99.90;;;;;;4966792;28;20392;-75
2022/03/04 01:06:44;;;;;;;37.10;13.27;;;-2.10;99.90;;;;;;4949173;28;20039;-76
2022/03/04 01:09:10;;;;;;;35.13;13.90;;;-1.50;99.90;;;;;;4949497;28;20031;-76
2022/03/04 01:11:37;;;;;;;42.78;14.88;;;-1.00;99.90;;;;;;4949358;28;20665;-76
2022/03/04 01:14:03;;;;;;;33.60;12.73;;;-0.70;99.90;;;;;;4948840;28;20511;-76
2022/03/04 01:16:29;;;;;;;31.65;12.70;;;-2.00;99.90;;;;;;4948601;28;20488;-76
2022/03/04 01:18:55;;;;;;;29.23;12.63;;;-0.90;99.90;;;;;;4949326;28;20708;-76
2022/03/04 01:21:21;;;;;;;40.60;14.63;;;-0.70;99.90;;;;;;4949066;28;20116;-75
2022/03/04 01:23:46;;;;;;;43.95;15.73;;;-1.70;99.90;;;;;;4947135;28;20083;-75
2022/03/04 01:26:12;;;;;;;35.00;14.38;;;-0.50;99.90;;;;;;4949103;28;20685;-76
2022/03/04 01:28:38;;;;;;;29.10;13.23;;;-1.10;99.90;;;;;;4948904;28;20035;-75
2022/03/04 01:31:03;;;;;;;32.20;12.98;;;-2.00;99.90;;;;;;4948915;28;20113;-76
2022/03/04 01:33:29;;;;;;;39.50;14.68;;;-0.70;99.90;;;;;;4949320;28;20082;-76
2022/03/04 01:35:55;;;;;;;32.90;13.50;;;-2.10;99.90;;;;;;4949119;28;20031;-75
2022/03/04 01:38:21;;;;;;;36.80;13.32;;;-2.10;99.90;;;;;;4949262;28;20427;-75
2022/03/04 01:40:46;;;;;;;32.30;14.63;;;-2.30;99.90;;;;;;4949539;28;20033;-75
2022/03/04 01:43:12;;;;;;;40.25;14.15;;;-2.40;99.90;;;;;;4949018;28;20059;-75
2022/03/04 01:45:38;;;;;;;40.78;15.82;;;-2.40;99.90;;;;;;4947853;28;20670;-76
2022/03/04 01:48:04;;;;;;;37.65;12.88;;;-2.30;99.90;;;;;;4967880;28;20079;-75
2022/03/04 01:50:30;;;;;;;37.08;14.35;;;-2.30;99.90;;;;;;4968050;28;20050;-76
2022/03/04 01:52:55;;;;;;;28.88;13.55;;;-2.20;99.90;;;;;;4967998;28;20022;-76
2022/03/04 01:55:21;;;;;;;34.90;13.63;;;-1.20;99.90;;;;;;4968496;28;20062;-76
2022/03/04 01:57:47;;;;;;;35.80;14.20;;;-2.50;99.90;;;;;;4968611;28;20037;-76
2022/03/04 02:00:14;;;;;;;35.60;12.80;;;-2.60;99.90;;;;;;4968369;28;20030;-75
2022/03/04 02:02:41;;;;;;;33.58;12.50;;;-2.70;99.90;;;;;;4967892;28;20041;-75
2022/03/04 02:05:11;;;;;;;39.00;13.98;;;-2.30;99.90;;;;;;4968188;28;20272;-76
2022/03/04 02:07:36;;;;;;;36.83;13.73;;;-2.70;99.90;;;;;;4968149;28;20519;-76
2022/03/04 02:10:02;;;;;;;33.30;13.95;;;-2.40;99.90;;;;;;4966906;28;20061;-75
2022/03/04 02:12:28;;;;;;;44.72;15.43;;;-2.70;99.90;;;;;;4968284;28;20029;-77
2022/03/04 02:14:53;;;;;;;36.03;12.15;;;-2.00;99.90;;;;;;4970839;28;20572;-75
2022/03/04 02:17:19;;;;;;;33.50;14.77;;;-1.60;99.90;;;;;;4973353;28;20085;-75
2022/03/04 02:19:50;;;;;;;34.35;14.27;;;-2.90;99.90;;;;;;4971166;28;20035;-75
2022/03/04 02:22:16;;;;;;;31.15;12.82;;;-2.10;99.90;;;;;;4970230;28;20042;-75
2022/03/04 02:24:41;;;;;;;33.50;13.02;;;-3.10;99.90;;;;;;4971773;28;20049;-76
2022/03/04 02:27:08;;;;;;;35.65;13.65;;;-3.30;99.90;;;;;;4970919;28;20054;-75
2022/03/04 02:29:34;;;;;;;33.05;13.45;;;-2.60;99.90;;;;;;4971364;28;20035;-75
2022/03/04 02:32:00;;;;;;;32.42;12.85;;;-3.10;99.90;;;;;;4971680;28;20129;-76
2022/03/04 02:34:26;;;;;;;36.33;12.73;;;-2.70;99.90;;;;;;4971386;28;20027;-76
2022/03/04 02:36:52;;;;;;;39.72;13.52;;;-3.10;99.90;;;;;;4971357;28;20029;-75
2022/03/04 02:39:18;;;;;;;34.90;14.40;;;-3.40;99.90;;;;;;4971396;28;20038;-75
2022/03/04 02:41:44;;;;;;;30.67;12.27;;;-3.30;99.90;;;;;;4970330;28;20431;-76
2022/03/04 02:44:11;;;;;;;34.78;13.95;;;-3.30;99.90;;;;;;4970501;28;20102;-75
2022/03/04 02:46:37;;;;;;;33.42;11.90;;;-3.50;99.90;;;;;;4963704;28;20019;-75
2022/03/04 02:49:05;;;;;;;39.70;14.25;;;-3.50;99.90;;;;;;4951272;28;20074;-76
2022/03/04 02:51:31;;;;;;;35.55;13.35;;;-3.50;99.90;;;;;;4951172;28;20082;-75
2022/03/04 02:53:57;;;;;;;37.55;14.85;;;-3.40;99.90;;;;;;4951687;28;20472;-76
2022/03/04 02:56:23;;;;;;;33.38;14.80;;;-3.60;99.90;;;;;;4951133;28;20023;-75
2022/03/04 02:58:49;;;;;;;31.38;13.18;;;-2.60;99.90;;;;;;4951286;28;20023;-75
2022/03/04 03:01:15;;;;;;;32.92;13.55;;;-3.70;99.90;;;;;;4950256;28;20027;-77
2022/03/04 03:03:43;;;;;;;33.97;13.77;;;-3.80;99.90;;;;;;4951108;28;20041;-76
2022/03/04 03:06:10;;;;;;;32.53;12.82;;;-3.90;99.90;;;;;;4951419;28;20031;-77
2022/03/04 03:08:36;;;;;;;41.53;13.23;;;-2.50;99.90;;;;;;4951350;28;20027;-75
2022/03/04 03:11:01;;;;;;;33.97;13.32;;;-3.70;99.90;;;;;;4951047;28;20437;-75
2022/03/04 03:13:27;;;;;;;33.30;13.38;;;-3.70;99.90;;;;;;4950715;28;20038;-76
2022/03/04 03:15:53;;;;;;;34.67;13.98;;;-3.00;99.90;;;;;;4950531;28;20034;-76
2022/03/04 03:18:18;;;;;;;43.90;15.50;;;-3.80;99.90;;;;;;4950823;28;20023;-76
2022/03/04 03:20:44;;;;;;;34.88;13.55;;;-3.20;99.90;;;;;;4951194;28;20061;-76
2022/03/04 03:23:11;;;;;;;49.72;12.77;;;-3.30;99.90;;;;;;4950712;28;20027;-75
2022/03/04 03:25:36;;;;;;;37.85;14.82;;;-3.40;99.90;;;;;;4950347;28;20038;-74
2022/03/04 03:28:02;;;;;;;35.65;12.35;;;-4.00;99.90;;;;;;4951133;28;20027;-75
2022/03/04 03:30:29;;;;;;;43.40;14.18;;;-4.00;99.90;;;;;;4950825;28;20060;-75
2022/03/04 03:32:55;;;;;;;25.88;12.18;;;-3.50;99.90;;;;;;4949546;28;20023;-77
2022/03/04 03:35:21;;;;;;;32.03;14.00;;;-3.50;99.90;;;;;;4950684;28;20027;-75
2022/03/04 03:37:47;;;;;;;32.33;14.13;;;-2.90;99.90;;;;;;4950780;28;20038;-75
2022/03/04 03:40:14;;;;;;;34.40;11.70;;;-3.40;99.90;;;;;;4949345;28;20050;-75
2022/03/04 03:42:40;;;;;;;35.20;14.05;;;-4.20;99.90;;;;;;4950464;28;20027;-76
2022/03/04 03:45:07;;;;;;;35.40;13.10;;;-4.50;99.90;;;;;;4950754;28;20023;-76
2022/03/04 03:47:33;;;;;;;31.73;13.07;;;-4.10;99.90;;;;;;4965065;28;20022;-76
2022/03/04 03:50:00;;;;;;;42.42;13.95;;;-4.00;99.90;;;;;;4969812;28;20035;-76
2022/03/04 03:52:26;;;;;;;42.03;15.02;;;-3.50;99.90;;;;;;4971785;28;20023;-76
2022/03/04 03:54:52;;;;;;;32.38;14.15;;;-3.40;99.90;;;;;;4970277;28;20045;-75
2022/03/04 03:57:18;;;;;;;38.97;13.57;;;-3.70;99.90;;;;;;4969337;28;20102;-76
2022/03/04 03:59:44;;;;;;;37.53;13.73;;;-4.80;99.90;;;;;;4969612;28;20137;-76
2022/03/04 04:02:10;;;;;;;38.67;13.63;;;-3.40;99.90;;;;;;4968134;28;20479;-75
2022/03/04 04:04:35;;;;;;;30.48;12.13;;;-3.50;99.90;;;;;;4969406;28;20033;-77
2022/03/04 04:07:06;;;;;;;33.55;13.55;;;-3.80;99.90;;;;;;4969227;28;20790;-76
2022/03/04 04:09:32;;;;;;;39.63;14.10;;;-3.80;99.90;;;;;;4968016;28;20093;-75
2022/03/04 04:11:59;;;;;;;35.00;15.25;;;-3.10;99.90;;;;;;4968915;28;20456;-76
2022/03/04 04:14:26;;;;;;;35.17;13.30;;;-2.80;99.90;;;;;;4967731;28;20026;-75
2022/03/04 04:16:53;;;;;;;34.78;13.95;;;-3.00;99.90;;;;;;4969197;28;20113;-75
2022/03/04 04:19:19;;;;;;;34.92;12.88;;;-3.60;99.90;;;;;;4968837;28;20054;-74
2022/03/04 04:21:44;;;;;;;30.55;13.68;;;-3.40;99.90;;;;;;4969237;28;20023;-75
2022/03/04 04:24:10;;;;;;;39.45;14.88;;;-3.90;99.90;;;;;;4968010;28;20125;-76
2022/03/04 04:26:36;;;;;;;29.10;13.43;;;-3.60;99.90;;;;;;4968851;28;20792;-77
2022/03/04 04:29:03;;;;;;;33.95;12.68;;;-3.30;99.90;;;;;;4968534;28;20117;-76
2022/03/04 04:31:30;;;;;;;37.40;13.93;;;-4.20;99.90;;;;;;4968890;28;20027;-75
2022/03/04 04:33:55;;;;;;;34.88;12.07;;;-4.20;99.90;;;;;;4968835;28;20447;-75
2022/03/04 04:36:21;;;;;;;26.45;11.30;;;-4.00;99.90;;;;;;4968190;28;20054;-76
2022/03/04 04:38:47;;;;;;;33.70;12.18;;;-4.50;99.90;;;;;;4969305;28;20106;-77
2022/03/04 04:41:13;;;;;;;38.90;14.02;;;-4.10;99.90;;;;;;4967477;28;20081;-76
2022/03/04 04:43:38;;;;;;;30.38;11.38;;;-4.10;99.90;;;;;;4968229;28;20042;-75
2022/03/04 04:46:04;;;;;;;34.75;13.02;;;-4.70;99.90;;;;;;4964282;28;20191;-76
2022/03/04 04:48:31;;;;;;;33.03;12.07;;;-4.00;99.90;;;;;;4949608;28;20032;-76
2022/03/04 04:50:59;;;;;;;40.10;14.68;;;-4.50;99.90;;;;;;4949261;28;20035;-76
2022/03/04 04:53:27;;;;;;;35.42;14.23;;;-4.60;99.90;;;;;;4948179;28;20042;-76
2022/03/04 04:55:53;;;;;;;34.28;14.02;;;-3.60;99.90;;;;;;4949543;28;20068;-75
2022/03/04 04:58:19;;;;;;;35.03;12.98;;;-3.40;99.90;;;;;;4949442;28;20075;-77
2022/03/04 05:00:50;;;;;;;35.60;11.40;;;-3.70;99.90;;;;;;4949648;28;20034;-77
2022/03/04 05:03:17;;;;;;;30.73;13.43;;;-3.80;99.90;;;;;;4948806;28;20030;-76
2022/03/04 05:05:42;;;;;;;30.10;12.65;;;-3.90;99.90;;;;;;4949106;28;20031;-76
2022/03/04 05:08:08;;;;;;;30.00;10.80;;;-4.30;99.90;;;;;;4948922;28;20036;-76
2022/03/04 05:10:34;;;;;;;31.35;14.18;;;-4.70;99.90;;;;;;4949710;28;20045;-76
2022/03/04 05:13:00;;;;;;;36.83;14.27;;;-4.70;99.90;;;;;;4948566;28;20033;-76
2022/03/04 05:15:25;;;;;;;37.13;14.95;;;-3.40;99.90;;;;;;4947745;28;20082;-76
2022/03/04 05:17:51;;;;;;;40.60;13.43;;;-3.70;99.90;;;;;;4948887;28;20047;-76
2022/03/04 05:20:18;;;;;;;32.13;12.82;;;-2.80;99.90;;;;;;4948947;28;20357;-75
2022/03/04 05:22:44;;;;;;;39.55;14.23;;;-4.60;99.90;;;;;;4949094;28;20032;-76
2022/03/04 05:25:10;;;;;;;39.53;14.55;;;-3.20;99.90;;;;;;4949052;28;20094;-76
2022/03/04 05:27:36;;;;;;;43.28;13.82;;;-4.70;99.90;;;;;;4948626;28;20083;-74
2022/03/04 05:30:03;;;;;;;30.15;13.13;;;-4.80;99.90;;;;;;4948885;28;20098;-76
2022/03/04 05:32:28;;;;;;;34.60;12.93;;;-4.90;99.90;;;;;;4947596;28;20063;-75
2022/03/04 05:34:54;;;;;;;41.60;13.77;;;-4.80;99.90;;;;;;4947604;28;20035;-76
2022/03/04 05:37:20;;;;;;;30.20;12.25;;;-4.80;99.90;;;;;;4947590;28;20071;-76
2022/03/04 05:39:45;;;;;;;38.95;14.60;;;-4.50;99.90;;;;;;4949178;28;20110;-75
2022/03/04 05:42:11;;;;;;;33.50;13.18;;;-5.00;99.90;;;;;;4947353;28;20689;-76
2022/03/04 05:44:37;;;;;;;36.58;12.48;;;-5.00;99.90;;;;;;4947728;28;20027;-77
2022/03/04 05:47:03;;;;;;;31.33;12.95;;;-5.10;99.90;;;;;;4959178;28;20143;-76
2022/03/04 05:49:29;;;;;;;36.00;12.38;;;-5.20;99.90;;;;;;4969885;28;20070;-76
2022/03/04 05:51:54;;;;;;;28.55;13.13;;;-4.50;99.90;;;;;;4971471;28;20074;-76
2022/03/04 05:54:20;;;;;;;36.22;14.45;;;-5.20;99.90;;;;;;4970322;28;20038;-76
2022/03/04 05:56:46;;;;;;;32.58;11.75;;;-5.20;99.90;;;;;;4971484;28;20690;-74
2022/03/04 05:59:12;;;;;;;29.35;12.93;;;-4.10;99.90;;;;;;4971726;28;20046;-76
2022/03/04 06:01:37;;;;;;;38.08;12.48;;;-4.70;99.90;;;;;;4971677;28;20038;-75
2022/03/04 06:04:03;;;;;;;30.67;12.88;;;-4.00;99.90;;;;;;4971238;28;20023;-75
2022/03/04 06:06:29;;;;;;;31.02;10.75;;;-5.40;99.90;;;;;;4971587;28;20031;-77
2022/03/04 06:08:55;;;;;;;37.92;12.00;;;-4.80;99.90;;;;;;4971268;28;20042;-76
2022/03/04 06:11:20;;;;;;;37.42;13.93;;;-5.20;99.90;;;;;;4977105;28;20058;-76
2022/03/04 06:13:46;;;;;;;34.42;11.85;;;-4.00;99.90;;;;;;4971964;28;20036;-76
2022/03/04 06:16:12;;;;;;;35.13;13.77;;;-4.40;99.90;;;;;;4972635;28;20781;-76
2022/03/04 06:18:38;;;;;;;35.30;12.55;;;-3.40;99.90;;;;;;4973290;28;20034;-75
2022/03/04 06:21:04;;;;;;;42.40;13.80;;;-3.70;99.90;;;;;;4970196;28;20508;-76
2022/03/04 06:23:30;;;;;;;30.73;11.32;;;-5.10;99.90;;;;;;4969821;28;20039;-76
2022/03/04 06:25:58;;;;;;;38.88;15.85;;;-4.90;99.90;;;;;;4970992;28;20073;-77
2022/03/04 06:28:24;;;;;;;29.90;12.38;;;-4.60;99.90;;;;;;4970711;28;20022;-76
2022/03/04 06:30:50;;;;;;;51.20;16.65;;;-4.60;99.90;;;;;;4970908;28;20100;-75
2022/03/04 06:33:32;;;;;;;46.33;16.35;;;-4.60;99.90;;;;;;4977758;28;20098;-75
2022/03/04 06:36:03;;;;;;;54.65;17.58;;;-3.60;99.90;;;;;;4973723;28;20661;-75
2022/03/04 06:38:29;;;;;;;83.60;28.98;;;-3.70;99.90;;;;;;4970456;28;20494;-77
2022/03/04 06:40:55;;;;;;;63.97;27.48;;;-4.30;99.90;;;;;;4969752;28;20031;-77
2022/03/04 06:43:21;;;;;;;44.97;20.52;;;-4.10;99.90;;;;;;4968906;28;20027;-76
2022/03/04 06:45:47;;;;;;;43.25;15.45;;;-4.20;99.90;;;;;;4971307;28;20034;-78
2022/03/04 06:48:15;;;;;;;42.75;15.93;;;-3.20;99.90;;;;;;4969958;28;20572;-77
2022/03/04 06:50:41;;;;;;;42.78;17.60;;;-3.90;99.90;;;;;;4970890;28;20030;-77
2022/03/04 06:53:07;;;;;;;60.70;24.38;;;-3.50;99.90;;;;;;4969543;28;20181;-76
2022/03/04 06:55:33;;;;;;;48.00;23.67;;;-4.00;99.90;;;;;;4970869;28;20142;-76
2022/03/04 06:57:59;;;;;;;45.50;19.95;;;-3.80;99.90;;;;;;4971984;28;20034;-76
2022/03/04 07:00:25;;;;;;;52.85;19.80;;;-3.60;99.90;;;;;;4970215;28;20026;-76
2022/03/04 07:02:52;;;;;;;37.78;16.92;;;-3.30;99.90;;;;;;4969571;28;20037;-75
2022/03/04 07:05:17;;;;;;;51.35;18.73;;;-3.50;99.90;;;;;;4969389;28;20033;-75
2022/03/04 07:07:43;;;;;;;37.20;17.73;;;-3.10;99.90;;;;;;4970252;28;20022;-74
2022/03/04 07:10:09;;;;;;;44.70;17.30;;;-3.30;99.90;;;;;;4971649;28;20098;-76
2022/03/04 07:12:36;;;;;;;53.80;21.40;;;-3.10;99.90;;;;;;4970598;28;20341;-76
2022/03/04 07:15:03;;;;;;;46.55;20.00;;;-2.40;99.90;;;;;;4970508;28;20510;-75
2022/03/04 07:17:29;;;;;;;42.65;17.63;;;-2.90;99.90;;;;;;4969785;28;20518;-75
2022/03/04 07:19:54;;;;;;;48.85;19.20;;;-2.70;99.90;;;;;;4971394;28;20035;-76
2022/03/04 07:22:20;;;;;;;41.95;17.90;;;-2.20;99.90;;;;;;4971286;28;20043;-75
2022/03/04 07:24:46;;;;;;;46.28;18.05;;;-2.10;99.90;;;;;;4970323;28;20042;-74
2022/03/04 07:27:11;;;;;;;42.90;16.83;;;-1.20;99.90;;;;;;4970101;28;20542;-74
2022/03/04 07:29:37;;;;;;;41.35;19.08;;;-2.20;99.90;;;;;;4970119;28;20042;-76
2022/03/04 07:32:03;;;;;;;43.58;18.05;;;-2.10;99.90;;;;;;4970165;28;20031;-74
2022/03/04 07:34:29;;;;;;;48.90;16.80;;;-2.10;99.90;;;;;;4969972;28;20031;-75
2022/03/04 07:36:55;;;;;;;40.80;17.40;;;-0.90;99.90;;;;;;4971091;28;20077;-73
2022/03/04 07:39:20;;;;;;;35.53;15.65;;;-1.80;99.90;;;;;;4970058;28;20483;-73
2022/03/04 07:41:51;;;;;;;51.08;18.35;;;-1.60;99.90;;;;;;4969456;28;20721;-74
2022/03/04 07:44:19;;;;;;;44.20;16.52;;;-1.40;99.90;;;;;;4969898;28;20506;-75
2022/03/04 07:46:45;;;;;;;38.17;16.53;;;-1.10;99.90;;;;;;4961241;28;20074;-74
2022/03/04 07:49:11;;;;;;;43.33;18.45;;;-1.00;99.90;;;;;;4951409;28;20047;-74
2022/03/04 07:51:37;;;;;;;45.17;18.65;;;-0.90;99.90;;;;;;4950485;28;20034;-75
2022/03/04 07:54:03;;;;;;;42.72;17.05;;;-0.80;99.90;;;;;;4951281;28;20035;-77
2022/03/04 07:56:29;;;;;;;54.55;19.10;;;-0.70;99.90;;;;;;4950837;28;20102;-75
2022/03/04 07:58:54;;;;;;;52.08;19.00;;;-0.30;99.90;;;;;;4951138;28;20027;-78
2022/03/04 08:01:20;;;;;;;46.60;20.20;;;-0.30;99.90;;;;;;4951151;28;20027;-76
2022/03/04 08:03:47;;;;;;;41.58;18.27;;;0.00;99.90;;;;;;4955451;28;20039;-80
2022/03/04 08:06:13;;;;;;;47.80;20.05;;;0.20;99.90;;;;;;4954462;28;20066;-74
2022/03/04 08:08:39;;;;;;;44.10;20.08;;;0.40;99.90;;;;;;4955389;28;20039;-74
2022/03/04 08:11:06;;;;;;;47.78;19.63;;;0.60;99.90;;;;;;4949011;28;20027;-76
2022/03/04 08:13:32;;;;;;;48.47;19.45;;;0.90;99.90;;;;;;4948856;28;20712;-76
2022/03/04 08:15:58;;;;;;;47.90;19.05;;;1.10;99.90;;;;;;4950375;28;20054;-76
2022/03/04 08:18:24;;;;;;;47.25;17.65;;;1.30;99.90;;;;;;4950885;28;20376;-75
2022/03/04 08:20:50;;;;;;;59.65;19.08;;;1.50;99.90;;;;;;4949332;28;20396;-75
2022/03/04 08:23:15;;;;;;;46.88;17.15;;;1.40;99.90;;;;;;4950487;28;20029;-76
2022/03/04 08:25:41;;;;;;;38.35;16.08;;;1.30;99.90;;;;;;4949876;28;20031;-75
2022/03/04 08:28:07;;;;;;;46.95;17.38;;;1.20;99.90;;;;;;4949587;28;20028;-74
2022/03/04 08:30:34;;;;;;;41.28;17.33;;;1.10;99.90;;;;;;4949850;28;20039;-76
2022/03/04 08:33:00;;;;;;;45.47;16.52;;;1.10;99.90;;;;;;4948369;28;20388;-74
2022/03/04 08:35:25;;;;;;;43.55;16.77;;;1.10;99.90;;;;;;4950064;28;20484;-76
2022/03/04 08:37:54;;;;;;;44.00;17.15;;;1.10;99.90;;;;;;4948108;28;20027;-75
2022/03/04 08:40:20;;;;;;;39.75;17.13;;;1.10;99.90;;;;;;4949464;28;20126;-74
2022/03/04 08:42:46;;;;;;;42.40;17.83;;;1.20;99.90;;;;;;4950534;28;20035;-77
2022/03/04 08:45:14;;;;;;;44.20;17.17;;;1.40;99.90;;;;;;4965688;28;20553;-74
2022/03/04 08:47:43;;;;;;;44.20;18.83;;;1.50;99.90;;;;;;4968736;28;20023;-77
2022/03/04 08:50:10;;;;;;;35.85;17.10;;;1.60;99.90;;;;;;4968592;28;20427;-74
2022/03/04 08:52:36;;;;;;;42.22;18.40;;;1.70;99.90;;;;;;4967806;28;20035;-75
2022/03/04 08:55:02;;;;;;;42.22;16.65;;;1.90;99.90;;;;;;4977247;28;20077;-75
2022/03/04 08:57:28;;;;;;;44.67;18.02;;;1.90;99.90;;;;;;4972287;28;20030;-75
2022/03/04 08:59:53;;;;;;;44.10;16.88;;;2.00;99.90;;;;;;4967226;28;20019;-74
2022/03/04 09:02:19;;;;;;;42.15;17.65;;;1.90;99.90;;;;;;4966623;28;20611;-74
2022/03/04 09:04:45;;;;;;;37.08;17.75;;;2.00;99.90;;;;;;4967372;28;20054;-75
2022/03/04 09:07:11;;;;;;;47.00;20.83;;;2.10;99.90;;;;;;4967581;28;20121;-75
2022/03/04 09:09:38;;;;;;;31.38;13.80;;;2.20;99.90;;;;;;4965718;28;20726;-76
2022/03/04 09:12:04;;;;;;;38.90;15.70;;;2.30;99.90;;;;;;4966638;28;20073;-75
2022/03/04 09:14:30;;;;;;;32.38;14.90;;;2.20;99.90;;;;;;4967254;28;20057;-75
2022/03/04 09:16:56;;;;;;;37.72;16.73;;;2.30;99.90;;;;;;4967109;28;20042;-74
2022/03/04 09:19:22;;;;;;;29.65;12.07;;;2.40;99.90;;;;;;4968259;28;20030;-75
2022/03/04 09:21:47;;;;;;;33.13;14.13;;;2.40;99.90;;;;;;4969058;28;20097;-74
2022/03/04 09:24:14;;;;;;;30.85;13.13;;;2.50;99.90;;;;;;4972290;28;20089;-75
2022/03/04 09:26:39;;;;;;;35.08;14.52;;;2.60;99.90;;;;;;4972738;28;20033;-76
2022/03/04 09:29:05;;;;;;;37.15;14.45;;;2.60;99.90;;;;;;4972332;28;20027;-74
2022/03/04 09:31:31;;;;;;;36.53;13.75;;;2.60;99.90;;;;;;4972348;28;20117;-74
2022/03/04 09:33:57;;;;;;;33.20;13.68;;;2.80;99.90;;;;;;4971944;28;20049;-73
2022/03/04 09:36:22;;;;;;;35.72;14.50;;;2.90;99.90;;;;;;4973190;28;20109;-73
2022/03/04 09:38:48;;;;;;;38.63;17.20;;;3.10;99.90;;;;;;4972102;28;20027;-74
2022/03/04 09:41:14;;;;;;;33.55;14.15;;;3.20;99.90;;;;;;4972143;28;20037;-76
2022/03/04 09:43:41;;;;;;;24.10;11.23;;;3.20;99.90;;;;;;4972056;28;20062;-73
2022/03/04 09:46:07;;;;;;;29.45;12.57;;;3.40;99.90;;;;;;4971827;28;20035;-74
2022/03/04 09:48:39;;;;;;;32.03;14.68;;;3.50;99.90;;;;;;4972737;28;20038;-75
2022/03/04 09:51:07;;;;;;;32.17;14.25;;;3.60;99.90;;;;;;4971498;28;20062;-74
2022/03/04 09:53:33;;;;;;;29.65;13.27;;;3.70;99.90;;;;;;4972019;28;20081;-75
2022/03/04 09:55:59;;;;;;;31.10;14.38;;;3.70;99.90;;;;;;4971402;28;20566;-73
2022/03/04 09:58:24;;;;;;;29.58;13.43;;;3.80;99.80;;;;;;4971517;28;20058;-74
2022/03/04 10:00:50;;;;;;;29.17;12.88;;;4.00;99.90;;;;;;4971859;28;20033;-74
2022/03/04 10:03:39;;;;;;;29.25;12.93;;;4.00;95.00;;;;;;4972698;28;20031;-77
2022/03/04 10:06:06;;;;;;;30.73;13.07;;;4.00;94.20;;;;;;4969969;28;20066;-76
2022/03/04 10:08:46;;;;;;;33.60;12.77;;;4.10;94.60;;;;;;4972749;28;20050;-78
2022/03/04 10:11:22;;;;;;;32.08;12.65;;;4.20;97.50;;;;;;4970682;28;20038;-77
2022/03/04 10:13:54;;;;;;;30.80;12.82;;;4.30;96.50;;;;;;4972204;28;20019;-77
2022/03/04 10:16:26;;;;;;;28.52;13.02;;;4.40;94.90;;;;;;4972214;28;20082;-78
2022/03/04 10:19:24;;;;;;;25.73;11.13;;;4.50;94.90;;;;;;4972426;28;20676;-79
2022/03/04 10:21:56;;;;;;;24.88;10.82;;;4.50;90.60;;;;;;4947184;28;20077;-78
2022/03/04 10:24:27;;;;;;;36.25;13.50;;;4.50;92.10;;;;;;4951125;29;20464;-77
2022/03/04 10:27:06;;;;;;;28.65;12.13;;;4.60;89.70;;;;;;4951177;28;20031;-77
2022/03/04 10:29:35;;;;;;;24.50;11.25;;;4.70;89.40;;;;;;4951402;29;20035;-77
2022/03/04 10:32:19;;;;;;;26.95;11.85;;;4.80;90.90;;;;;;4951564;28;20035;-76
2022/03/04 10:34:55;;;;;;;28.42;13.15;;;4.90;89.20;;;;;;4950104;28;20059;-79
2022/03/04 10:37:52;;;;;;;34.05;13.57;;;5.00;89.10;;;;;;4951596;29;20629;-78
2022/03/04 10:40:22;;;;;;;26.65;13.20;;;4.90;82.10;;;;;;4953138;29;20016;-77
2022/03/04 10:42:55;;;;;;;24.38;11.30;;;5.00;82.70;;;;;;4951649;28;20035;-77
2022/03/04 10:45:32;;;;;;;26.50;11.10;;;5.10;82.50;;;;;;4951812;28;20573;-80
2022/03/04 10:48:02;;;;;;;24.23;10.55;;;5.20;83.00;;;;;;4949735;29;20042;-78
2022/03/04 10:50:34;;;;;;;25.98;10.10;;;5.30;79.20;;;;;;4951408;28;20044;-77
2022/03/04 10:53:09;;;;;;;23.50;9.75;;;5.40;81.30;;;;;;4951283;28;20031;-78
2022/03/04 10:55:35;;;;;;;26.38;10.65;;;5.40;81.70;;;;;;4951608;28;20031;-77
2022/03/04 10:58:04;;;;;;;23.17;11.35;;;5.40;79.30;;;;;;4950669;29;20038;-78
2022/03/04 11:00:32;;;;;;;20.45;10.27;;;5.50;78.00;;;;;;4969332;28;20521;-80
2022/03/04 11:02:59;;;;;;;21.70;10.10;;;5.60;77.80;;;;;;4973292;28;20039;-77
2022/03/04 11:05:25;;;;;;;27.20;11.60;;;5.80;77.00;;;;;;4971581;28;20939;-78
2022/03/04 11:07:51;;;;;;;20.60;9.00;;;5.80;78.10;;;;;;4971827;28;20031;-78
2022/03/04 11:10:19;;;;;;;17.90;8.75;;;5.90;76.60;;;;;;4972914;28;20516;-77
2022/03/04 11:12:46;;;;;;;21.05;9.43;;;5.90;75.20;;;;;;4973479;28;20042;-79
2022/03/04 11:15:13;;;;;;;22.10;10.18;;;5.90;76.10;;;;;;4974089;28;20026;-77
2022/03/04 11:17:39;;;;;;;23.00;9.98;;;6.00;76.40;;;;;;4971135;28;20392;-78
2022/03/04 11:20:09;;;;;;;22.10;11.23;;;6.10;75.80;;;;;;4973387;28;20491;-78
2022/03/04 11:22:39;;;;;;;20.38;9.88;;;6.10;75.10;;;;;;4970444;28;20108;-77
2022/03/04 11:25:10;;;;;;;22.77;9.65;;;6.30;75.50;;;;;;4970946;28;20459;-76
2022/03/04 11:27:42;;;;;;;26.38;10.73;;;6.30;76.20;;;;;;4971779;28;20427;-74
2022/03/04 11:30:26;;;;;;;21.35;10.02;;;6.40;73.80;;;;;;4970980;28;20045;-75
2022/03/04 11:33:20;;;;;;;21.30;9.90;;;6.50;73.80;;;;;;4970804;28;20059;-74
2022/03/04 11:36:08;;;;;;;22.77;11.10;;;6.50;73.10;;;;;;4969676;28;20039;-75
2022/03/04 11:38:49;;;;;;;27.75;9.50;;;6.50;73.70;;;;;;4970133;28;20042;-74
2022/03/04 11:41:27;;;;;;;20.38;10.05;;;6.50;73.00;;;;;;4970367;28;20360;-77
2022/03/04 11:43:56;;;;;;;23.88;9.60;;;6.60;74.10;;;;;;4970721;28;20361;-77
2022/03/04 11:46:43;;;;;;;19.95;9.40;;;6.60;74.50;;;;;;4969831;28;20046;-74
2022/03/04 11:49:34;;;;;;;21.45;10.23;;;6.80;75.10;;;;;;4967845;28;20570;-75
2022/03/04 11:52:15;;;;;;;17.85;9.25;;;6.90;73.60;;;;;;4970991;28;20057;-80
2022/03/04 11:54:51;;;;;;;26.52;11.57;;;6.90;74.30;;;;;;4973950;28;20018;-79
2022/03/04 11:57:21;;;;;;;24.45;12.07;;;6.90;72.40;;;;;;4979826;28;20037;-80
2022/03/04 11:59:56;;;;;;;23.50;10.95;;;6.90;71.80;;;;;;4980000;28;20042;-79
2022/03/04 12:02:43;;;;;;;21.30;8.85;;;6.90;72.00;;;;;;4980673;28;20030;-77
2022/03/04 12:05:17;;;;;;;22.65;9.93;;;7.00;70.60;;;;;;4979969;28;20039;-78
2022/03/04 12:08:05;;;;;;;24.58;10.77;;;7.20;72.40;;;;;;4975028;28;20053;-77
2022/03/04 12:10:34;;;;;;;27.45;11.38;;;7.10;72.00;;;;;;4969642;28;20038;-76
2022/03/04 12:13:18;;;;;;;21.50;9.93;;;7.00;72.40;;;;;;4970148;28;20484;-77
2022/03/04 12:15:48;;;;;;;16.35;7.70;;;7.30;72.90;;;;;;4968654;28;20026;-77
2022/03/04 12:18:25;;;;;;;21.70;10.25;;;7.40;67.10;;;;;;4968589;28;20049;-77
2022/03/04 12:20:57;;;;;;;18.50;9.25;;;7.20;67.00;;;;;;4985510;28;20115;-78
2022/03/04 12:23:37;;;;;;;24.52;10.23;;;7.30;66.80;;;;;;4970610;28;20058;-78
2022/03/04 12:26:04;;;;;;;23.65;7.90;;;7.50;67.20;;;;;;4971023;28;20562;-77
2022/03/04 12:28:32;;;;;;;16.48;7.72;;;7.50;66.60;;;;;;4971381;28;20027;-77
2022/03/04 12:31:01;;;;;;;21.38;9.40;;;7.70;66.50;;;;;;4972315;28;20030;-76
2022/03/04 12:33:39;;;;;;;20.70;8.60;;;8.20;65.90;;;;;;4971338;28;20058;-78